createdAt,value
2023-01-30T00:00:06.161Z,99159.10
2023-01-30T00:05:29.258Z,99147.97
2023-01-30T00:10:32.478Z,99136.60
2023-01-30T00:15:36.702Z,99123.33
2023-01-30T00:20:40.106Z,99109.48
2023-01-30T00:25:46.217Z,99099.60
2023-01-30T00:30:51.289Z,99088.52
2023-01-30T00:35:56.475Z,99071.11
2023-01-30T00:40:59.814Z,99059.67
2023-01-30T00:46:28.152Z,99046.89
2023-01-30T00:51:31.311Z,99036.33
2023-01-30T00:56:35.038Z,99022.33
2023-01-30T01:01:38.581Z,99013.23
2023-01-30T01:06:41.848Z,99006.08
2023-01-30T01:11:45.171Z,98993.44
2023-01-30T01:16:48.554Z,98983.31
2023-01-30T01:21:52.069Z,98973.52
2023-01-30T01:26:55.514Z,98965.95
2023-01-30T01:31:58.841Z,98953.08
2023-01-30T01:37:02.447Z,98946.74
2023-01-30T01:42:16.658Z,98934.19
2023-01-30T01:47:20.947Z,98911.12
2023-01-30T01:52:24.355Z,98901.44
2023-01-30T01:57:34.872Z,98899.29
2023-01-30T02:02:59.786Z,98891.09
2023-01-30T02:08:07.915Z,98882.73
2023-01-30T02:13:11.287Z,98864.09
2023-01-30T02:18:15.624Z,98855.73
2023-01-30T02:23:43.941Z,98850.51
2023-01-30T02:29:07.710Z,98839.39
2023-01-30T02:34:35.222Z,98841.70
2023-01-30T02:40:01.333Z,98837.37
2023-01-30T02:45:30.328Z,98829.63
2023-01-30T02:50:36.167Z,98811.35
2023-01-30T02:55:41.178Z,98806.45
2023-01-30T03:00:47.507Z,98799.30
2023-01-30T03:06:05.459Z,98794.80
2023-01-30T03:11:10.836Z,98786.88
2023-01-30T03:16:41.207Z,98782.26
2023-01-30T03:21:46.067Z,98784.38
2023-01-30T03:26:55.288Z,98773.26
2023-01-30T03:31:58.725Z,98759.73
2023-01-30T03:37:03.283Z,98760.28
2023-01-30T03:42:10.497Z,98754.27
2023-01-30T03:47:15.224Z,98739.55
2023-01-30T03:52:18.826Z,98735.11
2023-01-30T03:57:22.167Z,98729.61
2023-01-30T04:02:26.525Z,98710.33
2023-01-30T04:07:30.534Z,98703.55
2023-01-30T04:12:34.148Z,98705.80
2023-01-30T04:17:38.002Z,98695.40
2023-01-30T04:23:01.738Z,98689.04
2023-01-30T04:28:07.154Z,98686.02
2023-01-30T04:33:13.450Z,98685.79
2023-01-30T04:38:16.705Z,98675.39
2023-01-30T04:43:22.216Z,98670.59
2023-01-30T04:48:28.547Z,98661.11
2023-01-30T04:53:33.188Z,98650.34
2023-01-30T04:58:36.692Z,98636.10
2023-01-30T05:03:39.970Z,98638.47
2023-01-30T05:08:44.786Z,98642.77
2023-01-30T05:13:50.219Z,98645.70
2023-01-30T05:18:53.517Z,98646.52
2023-01-30T05:23:57.693Z,98637.92
2023-01-30T05:29:01.177Z,98629.81
2023-01-30T05:34:05.229Z,98598.47
2023-01-30T05:39:08.882Z,98591.24
2023-01-30T05:44:12.697Z,98584.55
2023-01-30T05:49:22.750Z,98587.77
2023-01-30T05:54:26.128Z,98586.35
2023-01-30T05:59:29.411Z,98579.67
2023-01-30T06:04:32.686Z,98571.85
2023-01-30T06:09:35.980Z,98552.06
2023-01-30T06:14:39.498Z,98556.36
2023-01-30T06:19:42.742Z,98551.91
2023-01-30T06:24:46.186Z,98554.38
2023-01-30T06:29:49.523Z,98529.05
2023-01-30T06:34:52.813Z,98509.77
2023-01-30T06:39:56.185Z,98498.59
2023-01-30T06:44:59.478Z,98500.31
2023-01-30T06:50:03.016Z,98491.45
2023-01-30T06:55:06.978Z,98496.35
2023-01-30T07:00:16.407Z,98481.44
2023-01-30T07:05:20.042Z,98463.48
2023-01-30T07:10:24.048Z,98463.50
2023-01-30T07:15:27.725Z,98436.55
2023-01-30T07:20:31.609Z,98432.95
2023-01-30T07:25:35.005Z,98425.68
2023-01-30T07:30:38.445Z,98427.42
2023-01-30T07:35:41.922Z,98426.69
2023-01-30T07:40:45.365Z,98430.11
2023-01-30T07:45:49.422Z,98442.46
2023-01-30T07:50:56.976Z,98445.70
2023-01-30T07:56:01.179Z,98440.63
2023-01-30T08:01:05.087Z,98422.41
2023-01-30T08:06:08.781Z,98411.73
2023-01-30T08:11:12.291Z,98417.42
2023-01-30T08:16:15.793Z,98402.92
2023-01-30T08:21:20.100Z,98395.27
2023-01-30T08:26:24.109Z,98375.84
2023-01-30T08:31:28.355Z,98386.11
2023-01-30T08:36:33.009Z,98372.73
2023-01-30T08:41:36.901Z,98354.75
2023-01-30T08:46:41.015Z,98342.63
2023-01-30T08:51:45.258Z,98341.11
2023-01-30T08:56:52.661Z,98345.44
2023-01-30T09:01:57.411Z,98335.40
2023-01-30T09:07:00.729Z,98318.67
2023-01-30T09:12:04.466Z,98307.83
2023-01-30T09:17:07.810Z,98308.23
2023-01-30T09:22:11.159Z,98302.63
2023-01-30T09:27:15.491Z,98292.31
2023-01-30T09:32:19.214Z,98288.88
2023-01-30T09:37:23.450Z,98279.05
2023-01-30T09:42:59.250Z,98277.05
2023-01-30T09:48:30.466Z,98263.54
2023-01-30T09:53:43.291Z,98246.13
2023-01-30T09:58:53.791Z,98244.05
2023-01-30T10:04:19.523Z,98236.23
2023-01-30T10:09:41.677Z,98229.20
2023-01-30T10:15:05.707Z,98211.41
2023-01-30T10:20:33.552Z,98197.04
2023-01-30T10:25:39.628Z,98173.20
2023-01-30T10:30:46.572Z,98161.34
2023-01-30T10:36:08.654Z,98157.31
2023-01-30T10:41:20.070Z,98146.87
2023-01-30T10:46:48.929Z,98136.34
2023-01-30T10:52:13.031Z,98128.13
2023-01-30T10:57:17.819Z,98140.86
2023-01-30T11:02:31.955Z,98131.36
2023-01-30T11:07:36.445Z,98130.76
2023-01-30T11:12:43.928Z,98119.60
2023-01-30T11:17:50.091Z,98117.67
2023-01-30T11:23:27.630Z,98102.26
2023-01-30T11:28:40.520Z,98099.63
2023-01-30T11:34:02.540Z,98106.08
2023-01-30T11:39:16.520Z,98091.84
2023-01-30T11:44:29.473Z,98082.31
2023-01-30T11:49:47.297Z,98071.23
2023-01-30T11:55:14.082Z,98062.60
2023-01-30T12:00:23.051Z,98057.92
2023-01-30T12:05:37.978Z,98055.49
2023-01-30T12:10:46.007Z,98049.25
2023-01-30T12:16:07.859Z,98041.69
2023-01-30T12:21:28.470Z,98031.31
2023-01-30T12:26:54.034Z,98024.06
2023-01-30T12:32:10.471Z,98020.10
2023-01-30T12:37:19.916Z,98018.30
2023-01-30T12:42:57.219Z,98018.39
2023-01-30T12:48:24.397Z,98011.05
2023-01-30T12:53:55.735Z,98008.52
2023-01-30T12:59:19.490Z,98003.98
2023-01-30T13:05:07.482Z,97998.41
2023-01-30T13:10:23.749Z,97997.54
2023-01-30T13:15:33.310Z,97986.75
2023-01-30T13:21:00.687Z,97991.61
2023-01-30T13:26:16.548Z,97993.04
2023-01-30T13:31:23.993Z,97970.41
2023-01-30T13:36:53.077Z,97978.58
2023-01-30T13:41:59.815Z,97975.20
2023-01-30T13:47:23.174Z,97970.95
2023-01-30T13:52:26.880Z,97972.15
2023-01-30T13:57:42.125Z,97973.88
2023-01-30T14:03:05.272Z,97971.38
2023-01-30T14:08:22.394Z,97965.94
2023-01-30T14:13:30.648Z,97967.66
2023-01-30T14:18:40.749Z,97978.27
2023-01-30T14:23:59.124Z,97972.14
2023-01-30T14:29:03.861Z,97964.46
2023-01-30T14:34:40.581Z,97960.11
2023-01-30T14:39:52.218Z,97961.83
2023-01-30T14:45:00.952Z,97963.00
2023-01-30T14:50:19.150Z,97963.69
2023-01-30T14:55:30.296Z,97966.91
2023-01-30T15:00:38.079Z,97966.55
2023-01-30T15:05:47.316Z,97968.13
2023-01-30T15:11:13.341Z,97982.03
2023-01-30T15:16:38.889Z,97982.58
2023-01-30T15:22:14.455Z,97985.39
2023-01-30T15:27:32.697Z,97989.48
2023-01-30T15:32:36.811Z,97986.34
2023-01-30T15:37:48.433Z,97990.52
2023-01-30T15:42:58.864Z,97989.65
2023-01-30T15:48:34.850Z,97991.71
2023-01-30T15:53:45.149Z,97996.82
2023-01-30T15:58:50.207Z,97999.63
2023-01-30T16:03:55.598Z,97999.08
2023-01-30T16:09:06.337Z,98006.41
2023-01-30T16:14:18.841Z,98021.66
2023-01-30T16:19:29.750Z,98021.52
2023-01-30T16:24:37.016Z,98023.42
2023-01-30T16:29:51.452Z,98029.27
2023-01-30T16:35:17.722Z,98045.20
2023-01-30T16:40:25.905Z,98047.85
2023-01-30T16:45:38.102Z,98050.48
2023-01-30T16:50:43.808Z,98048.39
2023-01-30T16:56:10.212Z,98043.10
2023-01-30T17:01:14.174Z,98042.17
2023-01-30T17:06:40.107Z,98041.56
2023-01-30T17:11:44.293Z,98044.54
2023-01-30T17:17:08.495Z,98045.89
2023-01-30T17:22:24.784Z,98042.02
2023-01-30T17:27:30.576Z,98041.35
2023-01-30T17:32:35.449Z,98040.32
2023-01-30T17:37:40.317Z,98045.90
2023-01-30T17:42:45.346Z,98048.96
2023-01-30T17:47:50.882Z,98044.98
2023-01-30T17:52:55.658Z,98042.35
2023-01-30T17:58:01.645Z,98042.78
2023-01-30T18:03:05.941Z,98034.72
2023-01-30T18:08:09.875Z,98036.83
2023-01-30T18:13:14.172Z,98023.84
2023-01-30T18:18:18.667Z,98017.97
2023-01-30T18:23:22.039Z,98021.94
2023-01-30T18:28:26.425Z,98026.81
2023-01-30T18:33:33.129Z,98024.30
2023-01-30T18:38:36.695Z,98030.80
2023-01-30T18:43:40.241Z,98034.43
2023-01-30T18:48:45.127Z,98030.54
2023-01-30T18:53:51.375Z,98028.68
2023-01-30T18:58:56.546Z,98025.83
2023-01-30T19:04:02.093Z,98024.27
2023-01-30T19:09:17.403Z,98031.65
2023-01-30T19:14:20.860Z,98034.38
2023-01-30T19:19:25.011Z,98040.02
2023-01-30T19:24:28.368Z,98041.52
2023-01-30T19:29:31.691Z,98043.50
2023-01-30T19:34:35.128Z,98030.10
2023-01-30T19:39:38.492Z,98038.27
2023-01-30T19:44:42.954Z,98045.52
2023-01-30T19:49:46.244Z,98046.56
2023-01-30T19:54:49.738Z,98047.94
2023-01-30T19:59:53.047Z,98037.88
2023-01-30T20:04:57.434Z,98047.36
2023-01-30T20:10:00.930Z,98047.08
2023-01-30T20:15:06.195Z,98048.29
2023-01-30T20:20:10.666Z,98051.39
2023-01-30T20:26:26.630Z,98051.07
2023-01-30T20:31:31.057Z,98053.07
2023-01-30T20:36:34.720Z,98056.75
2023-01-30T20:41:38.808Z,98054.43
2023-01-30T20:46:45.012Z,98061.86
2023-01-30T20:51:51.278Z,98063.97
2023-01-30T20:56:54.664Z,98066.80
2023-01-30T21:01:58.025Z,98069.00
2023-01-30T21:07:01.696Z,98068.77
2023-01-30T21:12:05.608Z,98072.34
2023-01-30T21:17:09.118Z,98073.13
2023-01-30T21:22:12.402Z,98082.83
2023-01-30T21:27:15.631Z,98087.70
2023-01-30T21:32:19.399Z,98084.86
2023-01-30T21:37:41.213Z,98093.73
2023-01-30T21:43:03.555Z,98100.58
2023-01-30T21:48:06.876Z,98115.20
2023-01-30T21:53:10.120Z,98116.60
2023-01-30T21:58:13.529Z,98115.60
2023-01-30T22:03:16.839Z,98119.07
2023-01-30T22:08:20.001Z,98118.70
2023-01-30T22:13:23.306Z,98121.06
2023-01-30T22:18:26.506Z,98136.09
2023-01-30T22:23:38.543Z,98150.08
2023-01-30T22:28:42.032Z,98154.59
2023-01-30T22:33:51.517Z,98159.94
2023-01-30T22:38:55.445Z,98172.33
2023-01-30T22:43:59.980Z,98179.48
2023-01-30T22:49:05.584Z,98186.08
2023-01-30T22:54:16.120Z,98183.08
2023-01-30T22:59:19.776Z,98186.65
2023-01-30T23:04:23.882Z,98189.09
2023-01-30T23:09:27.287Z,98188.87
2023-01-30T23:14:30.563Z,98191.38
2023-01-30T23:19:33.720Z,98189.09
2023-01-30T23:24:37.105Z,98185.24
2023-01-30T23:29:40.313Z,98197.77
2023-01-30T23:34:43.542Z,98206.70
2023-01-30T23:39:46.870Z,98206.23
2023-01-30T23:44:53.221Z,98209.61
2023-01-30T23:49:56.579Z,98209.12
2023-01-30T23:55:00.176Z,98213.83
